Kapaa, HI

3:04 AM HST on February 12, 2016 (GMT -1000)
WAILUA HOMESTEADS | | Change Station
CLOSE
Current Station
Personal Weather Station
Location: Kapaa, HI
Elevation: 361 ft
Nearby Weather Stations
Active Advisory: High Surf Warning

Elev 361 ft 22.07 °N, 159.36 °W | Updated 43 seconds ago

Mostly Cloudy
Mostly Cloudy
68.9 °F
Feels Like 68.9 °F
N
0.0
Wind Variable Wind from NE
Gusts 9.0 mph

Today
High -- | Low -- °F
--% Chance of Precip.
Yesterday
High -- | Low -- °F
Precip. -- in
Pressure 30.04 in
Visibility 10.0 miles
Clouds Few 2200 ft
Scattered Clouds 2700 ft
Mostly Cloudy 5000 ft
Dew Point 66 °F
Humidity 92%
Rainfall 0.00 in
Snow Depth Not available.
7:10 AM 6:32 PM
Waxing Crescent, 20% visible
SPECI PHLI 121302Z 06006KT 10SM FEW022 SCT027 BKN050 23/19 A3004 RMK AO2
Pressure 30.04 in
Visibility 10.0 miles
Clouds Few 2200 ft
Scattered Clouds 2700 ft
Mostly Cloudy 5000 ft
Dew Point 66 °F
Humidity 92%
Rainfall 0.00 in
Snow Depth Not available.
7:10 AM 6:32 PM
Waxing Crescent, 20% visible
SPECI PHLI 121302Z 06006KT 10SM FEW022 SCT027 BKN050 23/19 A3004 RMK AO2

10-Day Weather Forecast

Almanac

Astronomy

Feb. 12, 2016 Rise Set
Actual Time
Civil Twilight
Nautical Twilight
Astronomical Twilight
Moon
Length of Visible Light
Length of Day
Tomorrow will be .
, % of the Moon is Illuminated

Today's Extremes

State Highs State Lows

Community

WunderPhotos

Upload Photos

1,892,305 photos uploaded!

WunderBlog® & News

Nearby

Air Quality

  Air Quality AQ Index Pollutant
Not available.

Snow Depth

Station Depth Elevation

Earthquake Activity

City Distance Mag. Time & Date
Minimum magnitude displayed is 2.5.

Coastal Water Temperatures

Place Temperature

Stations

Nearby Weather Stations

Station Location Temp. Windchill Dew Point Humidity Wind Precip. Elev Updated Type
                   

Watches & Warnings

High Surf Warning
Issued: 3:18 PM HST Feb. 11, 2016 – National Weather Service

... High surf warning now in effect until 6 am HST Friday...

* surf... along north and west facing shores of Niihau and Kauai
and north facing shores of Oahu Molokai and Maui... 20 to 30
feet. Along west facing shores of Oahu and Molokai... 15 to 20
feet. Surf will diminish to advisory levels on Friday.

* Timing... through tonight.

* Impacts... high... expect ocean water occasionally sweeping
across portions of beaches... very strong breaking waves and
strong longshore and rip currents. Breaking waves may
occasionally impact harbors making navigating The Harbor channel
dangerous.

Precautionary/preparedness actions...

Beachgoers... swimmers... and surfers should heed all advice given
by ocean safety officials and exercise caution. Large breaking
surf... significant shorebreak... and dangerous currents make
entering the water very hazardous.